createdAt,value
2022-07-31T00:00:46.985Z,34.70
2022-07-31T00:03:16.290Z,30.33
2022-07-31T00:05:44.072Z,31.48
2022-07-31T00:08:11.939Z,31.88
2022-07-31T00:10:40.025Z,30.40
2022-07-31T00:13:07.806Z,31.50
2022-07-31T00:15:38.235Z,30.17
2022-07-31T00:18:06.104Z,34.95
2022-07-31T00:20:35.593Z,33.42
2022-07-31T00:23:03.365Z,32.83
2022-07-31T00:25:31.953Z,36.13
2022-07-31T00:27:59.854Z,34.90
2022-07-31T00:30:27.616Z,36.60
2022-07-31T00:32:55.627Z,39.92
2022-07-31T00:35:23.474Z,36.70
2022-07-31T00:38:02.156Z,37.38
2022-07-31T00:40:47.745Z,39.85
2022-07-31T00:43:16.166Z,41.17
2022-07-31T00:45:44.305Z,37.58
2022-07-31T00:48:13.644Z,40.40
2022-07-31T00:50:41.757Z,37.97
2022-07-31T00:53:12.409Z,38.92
2022-07-31T00:55:40.594Z,39.40
2022-07-31T00:58:19.313Z,36.67
2022-07-31T01:00:47.762Z,40.88
2022-07-31T01:03:16.233Z,36.47
2022-07-31T01:05:43.952Z,43.97
2022-07-31T01:08:13.320Z,44.60
2022-07-31T01:10:47.006Z,37.97
2022-07-31T01:13:18.892Z,42.15
2022-07-31T01:15:46.932Z,42.70
2022-07-31T01:18:15.442Z,44.90
2022-07-31T01:20:44.782Z,45.97
2022-07-31T01:23:30.963Z,47.72
2022-07-31T01:26:35.722Z,44.33
2022-07-31T01:29:11.752Z,44.38
2022-07-31T01:31:44.862Z,49.80
2022-07-31T01:34:21.309Z,44.90
2022-07-31T01:36:56.709Z,43.63
2022-07-31T01:39:24.959Z,42.28
2022-07-31T01:41:53.540Z,40.47
2022-07-31T01:44:26.321Z,46.15
2022-07-31T01:46:54.692Z,43.88
2022-07-31T01:49:23.188Z,43.70
2022-07-31T01:51:52.718Z,41.40
2022-07-31T01:54:23.238Z,41.45
2022-07-31T01:56:51.809Z,37.67
2022-07-31T01:59:22.671Z,43.50
2022-07-31T02:02:10.077Z,47.13
2022-07-31T02:04:38.264Z,48.78
2022-07-31T02:07:08.096Z,46.85
2022-07-31T02:09:36.967Z,46.00
2022-07-31T02:12:09.782Z,52.45
2022-07-31T02:14:40.555Z,46.03
2022-07-31T02:17:10.647Z,51.70
2022-07-31T02:19:59.978Z,50.25
2022-07-31T02:22:29.340Z,51.05
2022-07-31T02:24:57.197Z,51.97
2022-07-31T02:27:55.520Z,48.42
2022-07-31T02:30:16.032Z,50.15
2022-07-31T02:32:47.380Z,50.10
2022-07-31T02:35:16.797Z,52.13
2022-07-31T02:37:45.868Z,55.00
2022-07-31T02:40:15.282Z,50.15
2022-07-31T02:42:43.644Z,50.80
2022-07-31T02:45:12.092Z,47.28
2022-07-31T02:47:40.046Z,44.95
2022-07-31T02:50:14.028Z,47.47
2022-07-31T02:52:48.372Z,49.08
2022-07-31T02:55:16.568Z,44.15
2022-07-31T02:57:44.640Z,48.95
2022-07-31T03:00:22.617Z,48.47
2022-07-31T03:02:52.200Z,50.13
2022-07-31T03:05:21.756Z,46.90
2022-07-31T03:07:49.659Z,42.15
2022-07-31T03:10:17.927Z,50.03
2022-07-31T03:13:04.505Z,47.92
2022-07-31T03:15:33.237Z,56.50
2022-07-31T03:18:02.012Z,47.42
2022-07-31T03:20:43.081Z,45.33
2022-07-31T03:23:12.921Z,43.67
2022-07-31T03:25:52.093Z,38.78
2022-07-31T03:28:20.488Z,43.88
2022-07-31T03:30:48.557Z,49.97
2022-07-31T03:33:16.308Z,47.33
2022-07-31T03:35:45.376Z,53.00
2022-07-31T03:38:40.840Z,51.25
2022-07-31T03:41:03.569Z,54.25
2022-07-31T03:43:44.124Z,50.33
2022-07-31T03:46:16.758Z,50.33
2022-07-31T03:48:44.809Z,53.85
2022-07-31T03:51:14.759Z,49.95
2022-07-31T03:53:43.700Z,54.20
2022-07-31T03:56:20.444Z,48.65
2022-07-31T03:58:52.530Z,47.40
2022-07-31T04:01:21.112Z,48.42
2022-07-31T04:03:59.046Z,47.85
2022-07-31T04:06:37.464Z,41.65
2022-07-31T04:09:15.578Z,42.70
2022-07-31T04:11:46.869Z,40.47
2022-07-31T04:14:14.720Z,37.75
2022-07-31T04:16:42.613Z,35.75
2022-07-31T04:19:10.656Z,32.92
2022-07-31T04:21:39.723Z,29.45
2022-07-31T04:24:08.324Z,34.63
2022-07-31T04:26:52.986Z,34.38
2022-07-31T04:29:21.026Z,28.50
2022-07-31T04:31:49.228Z,23.80
2022-07-31T04:34:25.559Z,25.80
2022-07-31T04:36:54.601Z,21.88
2022-07-31T04:39:22.372Z,21.27
2022-07-31T04:41:51.949Z,20.88
2022-07-31T04:44:20.682Z,21.40
2022-07-31T04:47:00.290Z,22.15
2022-07-31T04:49:29.050Z,20.75
2022-07-31T04:51:58.377Z,22.13
2022-07-31T04:54:26.207Z,25.45
2022-07-31T04:56:54.065Z,25.27
2022-07-31T04:59:23.555Z,27.95
2022-07-31T05:02:11.501Z,23.60
2022-07-31T05:04:40.502Z,34.35
2022-07-31T05:07:09.637Z,33.90
2022-07-31T05:09:37.389Z,36.88
2022-07-31T05:12:08.203Z,37.25
2022-07-31T05:14:36.372Z,40.88
2022-07-31T05:17:04.105Z,35.75
2022-07-31T05:19:50.879Z,36.55
2022-07-31T05:22:45.889Z,33.33
2022-07-31T05:25:32.990Z,31.52
2022-07-31T05:28:00.849Z,26.33
2022-07-31T05:30:30.635Z,29.90
2022-07-31T05:32:59.242Z,23.17
2022-07-31T05:35:27.211Z,18.55
2022-07-31T05:37:57.164Z,14.40
2022-07-31T05:40:39.175Z,15.18
2022-07-31T05:43:39.517Z,15.60
2022-07-31T05:46:17.673Z,14.48
2022-07-31T05:48:45.563Z,15.35
2022-07-31T05:51:14.564Z,13.63
2022-07-31T05:53:45.750Z,16.77
2022-07-31T05:56:32.519Z,15.40
2022-07-31T05:59:01.600Z,15.40
2022-07-31T06:01:29.548Z,16.65
2022-07-31T06:03:57.364Z,18.08
2022-07-31T06:06:32.977Z,16.70
2022-07-31T06:09:04.782Z,15.95
2022-07-31T06:11:41.750Z,15.98
2022-07-31T06:14:10.438Z,16.42
2022-07-31T06:16:58.326Z,14.55
2022-07-31T06:19:28.558Z,11.75
2022-07-31T06:21:56.327Z,10.65
2022-07-31T06:24:26.152Z,10.95
2022-07-31T06:26:57.725Z,11.73
2022-07-31T06:29:40.959Z,13.80
2022-07-31T06:32:10.653Z,14.48
2022-07-31T06:34:38.870Z,12.15
2022-07-31T06:37:07.648Z,12.77
2022-07-31T06:39:55.543Z,11.38
2022-07-31T06:43:00.861Z,13.40
2022-07-31T06:46:06.850Z,12.18
2022-07-31T06:48:57.625Z,12.25
2022-07-31T06:51:32.712Z,11.65
2022-07-31T06:54:01.064Z,13.35
2022-07-31T06:56:30.288Z,11.00
2022-07-31T06:58:58.189Z,9.88
2022-07-31T07:01:26.074Z,11.18
2022-07-31T07:03:54.561Z,9.82
2022-07-31T07:06:23.497Z,8.95
2022-07-31T07:08:51.618Z,12.77
2022-07-31T07:11:20.694Z,10.23
2022-07-31T07:13:50.774Z,10.95
2022-07-31T07:16:20.120Z,10.80
2022-07-31T07:18:48.737Z,8.85
2022-07-31T07:21:17.266Z,11.05
2022-07-31T07:23:45.091Z,14.02
2022-07-31T07:26:27.948Z,10.88
2022-07-31T07:28:57.473Z,9.65
2022-07-31T07:31:26.351Z,10.43
2022-07-31T07:33:56.009Z,9.38
2022-07-31T07:36:25.388Z,9.43
2022-07-31T07:38:58.723Z,8.20
2022-07-31T07:41:26.872Z,7.35
2022-07-31T07:43:55.228Z,9.27
2022-07-31T07:46:28.290Z,9.27
2022-07-31T07:48:58.440Z,9.57
2022-07-31T07:51:36.991Z,8.30
2022-07-31T07:54:37.122Z,6.88
2022-07-31T07:57:23.295Z,6.18
2022-07-31T08:00:11.908Z,5.43
2022-07-31T08:03:02.804Z,4.55
2022-07-31T08:05:40.476Z,4.60
2022-07-31T08:08:08.429Z,4.80
2022-07-31T08:10:48.162Z,5.00
2022-07-31T08:13:34.487Z,4.45
2022-07-31T08:16:32.519Z,4.80
2022-07-31T08:19:02.833Z,5.05
2022-07-31T08:21:31.624Z,4.10
2022-07-31T08:23:59.357Z,4.40
2022-07-31T08:26:27.448Z,4.00
2022-07-31T08:28:56.577Z,3.80
2022-07-31T08:31:27.283Z,4.13
2022-07-31T08:34:32.519Z,4.80
2022-07-31T08:37:52.441Z,4.38
2022-07-31T08:39:54.562Z,4.00
2022-07-31T08:42:22.956Z,3.38
2022-07-31T08:44:51.096Z,3.90
2022-07-31T08:47:23.541Z,3.90
2022-07-31T08:49:53.967Z,3.72
2022-07-31T08:52:23.793Z,3.60
2022-07-31T08:55:54.808Z,3.85
2022-07-31T08:58:04.525Z,3.72
2022-07-31T09:00:33.321Z,3.60
2022-07-31T09:03:01.332Z,3.60
2022-07-31T09:05:48.540Z,4.25
2022-07-31T09:08:16.669Z,4.40
2022-07-31T09:10:50.211Z,4.22
2022-07-31T09:13:19.636Z,4.03
2022-07-31T09:15:50.842Z,4.72
2022-07-31T09:18:19.664Z,3.63
2022-07-31T09:20:57.441Z,3.78
2022-07-31T09:23:26.399Z,3.90
2022-07-31T09:25:56.023Z,3.20
2022-07-31T09:28:33.605Z,3.40
2022-07-31T09:31:01.907Z,4.13
2022-07-31T09:33:58.795Z,4.68
2022-07-31T09:36:42.813Z,5.00
2022-07-31T09:39:30.913Z,5.53
2022-07-31T09:42:37.400Z,5.47
2022-07-31T09:45:23.770Z,4.80
2022-07-31T09:48:08.271Z,4.53
2022-07-31T09:50:36.382Z,4.20
2022-07-31T09:53:06.619Z,3.78
2022-07-31T09:55:36.333Z,4.05
2022-07-31T09:58:04.094Z,4.80
2022-07-31T10:00:38.753Z,4.13
2022-07-31T10:03:06.925Z,4.60
2022-07-31T10:05:35.277Z,4.40
2022-07-31T10:08:06.881Z,4.22
2022-07-31T10:10:53.161Z,5.15
2022-07-31T10:13:46.878Z,5.60
2022-07-31T10:16:15.332Z,3.75
2022-07-31T10:19:11.217Z,4.13
2022-07-31T10:21:58.439Z,4.13
2022-07-31T10:24:33.715Z,4.95
2022-07-31T10:27:07.852Z,4.90
2022-07-31T10:29:39.201Z,5.60
2022-07-31T10:32:07.853Z,5.68
2022-07-31T10:34:38.977Z,5.65
2022-07-31T10:37:32.246Z,6.53
2022-07-31T10:40:22.513Z,6.35
2022-07-31T10:43:03.430Z,5.03
2022-07-31T10:45:31.911Z,4.43
2022-07-31T10:48:26.313Z,4.85
2022-07-31T10:51:02.408Z,3.92
2022-07-31T10:54:06.845Z,3.88
2022-07-31T10:56:56.188Z,4.80
2022-07-31T10:59:44.881Z,6.32
2022-07-31T11:02:32.547Z,5.03
2022-07-31T11:05:23.066Z,3.95
2022-07-31T11:08:08.659Z,4.38
2022-07-31T11:11:00.829Z,4.53
2022-07-31T11:13:49.271Z,4.30
2022-07-31T11:16:53.236Z,4.18
2022-07-31T11:19:44.567Z,4.38
2022-07-31T11:22:31.607Z,4.40
2022-07-31T11:25:00.935Z,4.32
2022-07-31T11:27:32.692Z,3.90
2022-07-31T11:30:12.526Z,4.35
2022-07-31T11:32:41.270Z,3.85
2022-07-31T11:35:09.520Z,4.57
2022-07-31T11:37:46.239Z,4.38
2022-07-31T11:40:27.456Z,4.20
2022-07-31T11:43:24.814Z,4.47
2022-07-31T11:45:51.337Z,5.43
2022-07-31T11:48:20.881Z,4.82
2022-07-31T11:50:49.732Z,4.78
2022-07-31T11:53:17.806Z,4.25
2022-07-31T11:55:47.544Z,4.22
2022-07-31T11:58:16.573Z,4.30
2022-07-31T12:00:52.871Z,4.63
2022-07-31T12:03:23.688Z,4.57
2022-07-31T12:05:53.122Z,4.32
2022-07-31T12:08:21.779Z,4.40
2022-07-31T12:10:49.988Z,4.70
2022-07-31T12:13:19.811Z,4.32
2022-07-31T12:15:59.733Z,4.72
2022-07-31T12:18:28.242Z,4.45
2022-07-31T12:20:58.438Z,4.85
2022-07-31T12:23:41.130Z,4.57
2022-07-31T12:26:12.206Z,4.60
2022-07-31T12:28:40.069Z,4.63
2022-07-31T12:31:09.221Z,4.45
2022-07-31T12:33:45.527Z,4.82
2022-07-31T12:36:14.997Z,4.65
2022-07-31T12:38:45.052Z,4.78
2022-07-31T12:41:16.042Z,4.25
2022-07-31T12:43:51.883Z,4.95
2022-07-31T12:46:37.074Z,4.65
2022-07-31T12:49:05.389Z,4.70
2022-07-31T12:51:45.254Z,4.97
2022-07-31T12:54:15.845Z,4.63
2022-07-31T12:56:44.770Z,5.35
2022-07-31T12:59:12.875Z,5.18
2022-07-31T13:01:42.041Z,4.70
2022-07-31T13:04:18.664Z,6.10
2022-07-31T13:06:48.723Z,5.05
2022-07-31T13:09:16.732Z,5.32
2022-07-31T13:11:46.388Z,6.00
2022-07-31T13:14:16.460Z,5.20
2022-07-31T13:16:45.961Z,4.97
2022-07-31T13:19:13.971Z,5.28
2022-07-31T13:21:48.370Z,5.43
2022-07-31T13:24:18.279Z,5.05
2022-07-31T13:26:46.086Z,5.18
2022-07-31T13:29:13.888Z,4.97
2022-07-31T13:31:41.695Z,5.22
2022-07-31T13:34:10.785Z,4.85
2022-07-31T13:36:39.962Z,4.85
2022-07-31T13:39:08.146Z,4.70
2022-07-31T13:41:36.012Z,4.65
2022-07-31T13:44:06.767Z,4.63
2022-07-31T13:46:34.713Z,4.53
2022-07-31T13:49:04.177Z,4.85
2022-07-31T13:51:33.468Z,4.80
2022-07-31T13:54:01.522Z,5.15
2022-07-31T13:56:38.941Z,4.38
2022-07-31T13:59:11.418Z,5.00
2022-07-31T14:02:03.848Z,4.28
2022-07-31T14:04:31.326Z,4.60
2022-07-31T14:07:04.187Z,4.50
2022-07-31T14:09:35.187Z,4.65
2022-07-31T14:12:04.395Z,4.68
2022-07-31T14:14:32.939Z,4.95
2022-07-31T14:17:00.731Z,5.07
2022-07-31T14:19:28.594Z,5.63
2022-07-31T14:21:57.543Z,5.70
2022-07-31T14:24:27.288Z,5.10
2022-07-31T14:26:55.210Z,6.00
2022-07-31T14:29:22.951Z,5.95
2022-07-31T14:31:51.042Z,6.78
2022-07-31T14:34:18.789Z,8.80
2022-07-31T14:36:46.561Z,7.97
2022-07-31T14:39:14.333Z,9.63
2022-07-31T14:41:43.857Z,9.20
2022-07-31T14:44:11.903Z,5.72
2022-07-31T14:46:39.643Z,6.05
2022-07-31T14:49:08.527Z,5.82
2022-07-31T14:51:36.386Z,6.05
2022-07-31T14:54:04.199Z,6.10
2022-07-31T14:56:59.720Z,5.85
2022-07-31T14:59:21.349Z,6.47
2022-07-31T15:01:49.104Z,6.68
2022-07-31T15:04:16.895Z,8.75
2022-07-31T15:06:56.000Z,7.13
2022-07-31T15:09:33.236Z,7.15
2022-07-31T15:12:02.028Z,8.43
2022-07-31T15:14:31.787Z,6.82
2022-07-31T15:16:59.662Z,7.38
2022-07-31T15:19:27.515Z,7.28
2022-07-31T15:22:10.326Z,7.70
2022-07-31T15:24:48.828Z,7.53
2022-07-31T15:27:18.228Z,9.05
2022-07-31T15:30:04.759Z,8.82
2022-07-31T15:32:34.186Z,9.95
2022-07-31T15:35:01.932Z,9.27
2022-07-31T15:37:30.072Z,11.18
2022-07-31T15:40:02.402Z,9.90
2022-07-31T15:42:31.751Z,10.88
2022-07-31T15:45:01.004Z,11.75
2022-07-31T15:47:28.711Z,11.68
2022-07-31T15:49:56.505Z,10.90
2022-07-31T15:52:24.775Z,13.27
2022-07-31T15:54:52.928Z,13.02
2022-07-31T15:57:21.400Z,13.70
2022-07-31T15:59:49.423Z,14.35
2022-07-31T16:02:18.647Z,15.35
2022-07-31T16:04:52.857Z,15.63
2022-07-31T16:08:31.470Z,17.35
2022-07-31T16:10:15.462Z,16.08
2022-07-31T16:12:45.747Z,16.73
2022-07-31T16:15:13.996Z,17.05
2022-07-31T16:17:43.395Z,18.17
2022-07-31T16:20:12.777Z,18.40
2022-07-31T16:22:42.211Z,16.08
2022-07-31T16:25:11.552Z,18.10
2022-07-31T16:27:40.205Z,19.90
2022-07-31T16:30:08.767Z,19.85
2022-07-31T16:32:36.529Z,19.95
2022-07-31T16:35:06.982Z,18.83
2022-07-31T16:37:50.903Z,19.92
2022-07-31T16:40:30.758Z,20.20
2022-07-31T16:43:01.690Z,19.17
2022-07-31T16:45:30.683Z,21.38
2022-07-31T16:47:58.599Z,21.73
2022-07-31T16:50:27.852Z,22.05
2022-07-31T16:52:55.745Z,21.85
2022-07-31T16:55:51.520Z,22.50
2022-07-31T16:58:12.588Z,22.23
2022-07-31T17:00:40.849Z,22.27
2022-07-31T17:04:02.033Z,23.88
2022-07-31T17:05:58.474Z,25.08
2022-07-31T17:08:26.216Z,21.85
2022-07-31T17:10:54.958Z,24.80
2022-07-31T17:13:23.422Z,24.52
2022-07-31T17:15:51.339Z,24.33
2022-07-31T17:18:24.769Z,25.42
2022-07-31T17:20:53.385Z,22.65
2022-07-31T17:23:43.629Z,25.85
2022-07-31T17:26:21.189Z,23.50
2022-07-31T17:28:50.449Z,26.70
2022-07-31T17:31:18.892Z,23.50
2022-07-31T17:33:58.153Z,27.20
2022-07-31T17:36:27.778Z,24.85
2022-07-31T17:38:57.082Z,26.85
2022-07-31T17:41:26.154Z,27.70
2022-07-31T17:43:54.794Z,25.95
2022-07-31T17:46:29.985Z,28.00
2022-07-31T17:49:04.823Z,26.55
2022-07-31T17:51:33.008Z,29.08
2022-07-31T17:54:02.517Z,27.45
2022-07-31T17:56:30.312Z,26.58
2022-07-31T17:59:04.130Z,28.10
2022-07-31T18:01:32.001Z,29.67
2022-07-31T18:04:00.034Z,29.40
2022-07-31T18:06:28.449Z,28.58
2022-07-31T18:08:56.243Z,29.67
2022-07-31T18:11:25.444Z,27.75
2022-07-31T18:13:55.543Z,28.23
2022-07-31T18:16:31.415Z,29.30
2022-07-31T18:18:59.208Z,29.35
2022-07-31T18:21:27.005Z,30.05
2022-07-31T18:23:54.712Z,27.67
2022-07-31T18:26:23.467Z,26.63
2022-07-31T18:28:52.611Z,28.60
2022-07-31T18:31:34.625Z,26.08
2022-07-31T18:34:04.156Z,22.48
2022-07-31T18:36:32.273Z,22.58
2022-07-31T18:39:00.120Z,21.90
2022-07-31T18:41:28.041Z,23.50
2022-07-31T18:43:57.297Z,22.50
2022-07-31T18:46:25.505Z,23.10
2022-07-31T18:48:55.758Z,23.40
2022-07-31T18:51:24.637Z,23.08
2022-07-31T18:53:54.685Z,23.90
2022-07-31T18:56:23.497Z,25.20
2022-07-31T18:58:51.311Z,25.10
2022-07-31T19:01:20.735Z,24.48
2022-07-31T19:03:48.647Z,26.98
2022-07-31T19:06:17.105Z,27.15
2022-07-31T19:08:44.996Z,25.67
2022-07-31T19:11:12.897Z,28.73
2022-07-31T19:13:40.710Z,25.20
2022-07-31T19:16:08.466Z,26.58
2022-07-31T19:18:39.777Z,29.70
2022-07-31T19:21:22.636Z,27.52
2022-07-31T19:23:56.264Z,29.40
2022-07-31T19:26:24.087Z,27.13
2022-07-31T19:28:52.202Z,28.35
2022-07-31T19:31:19.982Z,28.65
2022-07-31T19:33:49.199Z,34.85
2022-07-31T19:36:17.779Z,28.83
2022-07-31T19:38:45.675Z,28.58
2022-07-31T19:41:14.619Z,31.25
2022-07-31T19:43:42.502Z,26.60
2022-07-31T19:46:12.765Z,36.95
2022-07-31T19:48:41.599Z,31.58
2022-07-31T19:51:11.366Z,33.40
2022-07-31T19:53:39.621Z,27.30
2022-07-31T19:56:07.414Z,28.77
2022-07-31T19:58:35.519Z,23.88
2022-07-31T20:01:04.548Z,29.33
2022-07-31T20:03:32.683Z,27.95
2022-07-31T20:06:00.753Z,25.67
2022-07-31T20:08:33.046Z,30.75
2022-07-31T20:11:03.443Z,27.00
2022-07-31T20:13:32.361Z,34.75
2022-07-31T20:16:00.493Z,33.78
2022-07-31T20:18:29.610Z,33.25
2022-07-31T20:20:59.819Z,31.65
2022-07-31T20:23:28.238Z,30.15
2022-07-31T20:25:57.624Z,34.67
2022-07-31T20:28:26.976Z,41.58
2022-07-31T20:30:54.776Z,35.55
2022-07-31T20:33:22.634Z,39.38
2022-07-31T20:35:51.884Z,35.58
2022-07-31T20:38:19.985Z,40.53
2022-07-31T20:40:54.733Z,38.78
2022-07-31T20:43:26.019Z,38.40
2022-07-31T20:45:54.195Z,38.28
2022-07-31T20:48:23.981Z,33.17
2022-07-31T20:50:52.290Z,38.28
2022-07-31T20:53:20.862Z,33.75
2022-07-31T20:55:49.940Z,35.28
2022-07-31T20:58:18.207Z,33.95
2022-07-31T21:00:48.197Z,33.95
2022-07-31T21:03:16.197Z,33.65
2022-07-31T21:05:44.557Z,34.80
2022-07-31T21:08:13.064Z,37.90
2022-07-31T21:10:51.949Z,34.38
2022-07-31T21:13:19.802Z,33.20
2022-07-31T21:15:51.333Z,34.75
2022-07-31T21:18:20.853Z,33.75
2022-07-31T21:20:52.177Z,31.30
2022-07-31T21:23:22.704Z,29.63
2022-07-31T21:25:51.339Z,28.77
2022-07-31T21:28:19.933Z,28.35
2022-07-31T21:30:49.719Z,29.98
2022-07-31T21:33:18.536Z,28.85
2022-07-31T21:35:47.044Z,28.08
2022-07-31T21:38:16.013Z,29.00
2022-07-31T21:40:44.634Z,29.08
2022-07-31T21:43:16.950Z,29.02
2022-07-31T21:45:57.573Z,27.88
2022-07-31T21:48:31.315Z,29.85
2022-07-31T21:50:59.832Z,29.65
2022-07-31T21:53:27.608Z,29.25
2022-07-31T21:55:55.389Z,30.10
2022-07-31T21:58:23.142Z,28.58
2022-07-31T22:00:52.276Z,29.02
2022-07-31T22:03:20.062Z,30.88
2022-07-31T22:06:05.576Z,31.08
2022-07-31T22:08:33.287Z,27.95
2022-07-31T22:11:01.328Z,28.95
2022-07-31T22:13:29.031Z,32.17
2022-07-31T22:16:00.705Z,34.05
2022-07-31T22:18:33.413Z,33.00
2022-07-31T22:21:05.450Z,35.78
2022-07-31T22:23:33.838Z,30.65
2022-07-31T22:26:02.489Z,32.15
2022-07-31T22:28:30.994Z,34.70
2022-07-31T22:31:00.811Z,34.38
2022-07-31T22:33:28.833Z,36.00
2022-07-31T22:35:58.239Z,35.47
2022-07-31T22:38:28.835Z,34.83
2022-07-31T22:40:56.745Z,36.13
2022-07-31T22:44:11.541Z,34.75
2022-07-31T22:46:14.810Z,31.65
2022-07-31T22:48:43.392Z,35.22
2022-07-31T22:51:14.346Z,32.75
2022-07-31T22:53:43.091Z,32.80
2022-07-31T22:56:10.822Z,36.20
2022-07-31T22:58:38.634Z,31.52
2022-07-31T23:01:06.422Z,33.25
2022-07-31T23:03:35.541Z,32.17
2022-07-31T23:06:31.845Z,35.78
2022-07-31T23:08:53.786Z,28.20
2022-07-31T23:11:24.381Z,33.40
2022-07-31T23:13:52.597Z,32.92
2022-07-31T23:16:21.036Z,32.67
2022-07-31T23:18:50.510Z,31.05
2022-07-31T23:21:18.841Z,35.10
2022-07-31T23:23:48.862Z,35.17
2022-07-31T23:26:18.226Z,34.17
2022-07-31T23:28:46.000Z,32.88
2022-07-31T23:31:13.889Z,33.95
2022-07-31T23:33:42.036Z,34.17
2022-07-31T23:36:11.386Z,31.08
2022-07-31T23:38:39.156Z,35.13
2022-07-31T23:41:06.908Z,40.05
2022-07-31T23:43:34.021Z,34.15
2022-07-31T23:46:01.761Z,37.00
2022-07-31T23:48:29.943Z,30.77
2022-07-31T23:50:58.193Z,33.28
2022-07-31T23:53:27.955Z,30.27
2022-07-31T23:55:55.736Z,37.83
2022-07-31T23:58:23.447Z,32.20
